sensor_id;sensor_type;location;lat;lon;timestamp;P1;durP1;ratioP1;P2;durP2;ratioP2
79454;SDS011;68900;52.134;5.420;2023-09-18T00:01:12;13.68;;;8.50;;
79454;SDS011;68900;52.134;5.420;2023-09-18T00:03:39;17.63;;;7.88;;
79454;SDS011;68900;52.134;5.420;2023-09-18T00:06:06;14.48;;;8.88;;
79454;SDS011;68900;52.134;5.420;2023-09-18T00:08:33;16.90;;;9.02;;
79454;SDS011;68900;52.134;5.420;2023-09-18T00:10:59;14.75;;;9.00;;
79454;SDS011;68900;52.134;5.420;2023-09-18T00:13:27;18.30;;;8.88;;
79454;SDS011;68900;52.134;5.420;2023-09-18T00:15:54;13.23;;;9.35;;
79454;SDS011;68900;52.134;5.420;2023-09-18T00:18:21;12.73;;;7.65;;
79454;SDS011;68900;52.134;5.420;2023-09-18T00:20:49;16.50;;;8.27;;
79454;SDS011;68900;52.134;5.420;2023-09-18T00:25:44;14.25;;;7.65;;
79454;SDS011;68900;52.134;5.420;2023-09-18T00:28:11;15.70;;;8.60;;
79454;SDS011;68900;52.134;5.420;2023-09-18T00:30:38;14.68;;;8.13;;
79454;SDS011;68900;52.134;5.420;2023-09-18T00:33:12;13.73;;;8.45;;
79454;SDS011;68900;52.134;5.420;2023-09-18T00:35:39;14.77;;;8.35;;
79454;SDS011;68900;52.134;5.420;2023-09-18T00:38:05;14.85;;;8.40;;
79454;SDS011;68900;52.134;5.420;2023-09-18T00:40:33;15.07;;;8.45;;
79454;SDS011;68900;52.134;5.420;2023-09-18T00:43:00;12.20;;;7.35;;
79454;SDS011;68900;52.134;5.420;2023-09-18T00:45:26;13.70;;;7.65;;
79454;SDS011;68900;52.134;5.420;2023-09-18T00:47:53;17.40;;;7.85;;
79454;SDS011;68900;52.134;5.420;2023-09-18T00:50:20;15.52;;;8.98;;
79454;SDS011;68900;52.134;5.420;2023-09-18T00:52:48;17.25;;;8.98;;
79454;SDS011;68900;52.134;5.420;2023-09-18T00:55:15;13.55;;;8.45;;
79454;SDS011;68900;52.134;5.420;2023-09-18T00:57:42;12.25;;;7.78;;
79454;SDS011;68900;52.134;5.420;2023-09-18T01:00:11;14.70;;;8.93;;
79454;SDS011;68900;52.134;5.420;2023-09-18T01:02:43;13.73;;;8.93;;
79454;SDS011;68900;52.134;5.420;2023-09-18T01:05:11;17.38;;;8.52;;
79454;SDS011;68900;52.134;5.420;2023-09-18T01:07:38;12.50;;;8.32;;
79454;SDS011;68900;52.134;5.420;2023-09-18T01:10:04;14.60;;;8.50;;
79454;SDS011;68900;52.134;5.420;2023-09-18T01:12:47;13.27;;;8.20;;
79454;SDS011;68900;52.134;5.420;2023-09-18T01:15:30;22.10;;;9.05;;
79454;SDS011;68900;52.134;5.420;2023-09-18T01:18:01;15.18;;;8.55;;
79454;SDS011;68900;52.134;5.420;2023-09-18T01:20:29;13.13;;;8.70;;
79454;SDS011;68900;52.134;5.420;2023-09-18T01:22:56;12.32;;;7.38;;
79454;SDS011;68900;52.134;5.420;2023-09-18T01:25:22;16.00;;;8.38;;
79454;SDS011;68900;52.134;5.420;2023-09-18T01:27:49;12.90;;;7.43;;
79454;SDS011;68900;52.134;5.420;2023-09-18T01:30:16;11.90;;;8.10;;
79454;SDS011;68900;52.134;5.420;2023-09-18T01:32:43;13.30;;;7.78;;
79454;SDS011;68900;52.134;5.420;2023-09-18T01:35:13;12.57;;;7.90;;
79454;SDS011;68900;52.134;5.420;2023-09-18T01:37:41;15.43;;;8.65;;
79454;SDS011;68900;52.134;5.420;2023-09-18T01:40:09;14.65;;;8.15;;
79454;SDS011;68900;52.134;5.420;2023-09-18T01:42:37;11.45;;;7.03;;
79454;SDS011;68900;52.134;5.420;2023-09-18T01:45:05;12.77;;;7.53;;
79454;SDS011;68900;52.134;5.420;2023-09-18T01:47:32;15.40;;;9.38;;
79454;SDS011;68900;52.134;5.420;2023-09-18T01:50:02;13.73;;;8.20;;
79454;SDS011;68900;52.134;5.420;2023-09-18T01:52:31;14.23;;;8.32;;
79454;SDS011;68900;52.134;5.420;2023-09-18T01:54:58;16.90;;;9.23;;
79454;SDS011;68900;52.134;5.420;2023-09-18T01:57:24;14.10;;;8.55;;
79454;SDS011;68900;52.134;5.420;2023-09-18T01:59:51;14.90;;;9.07;;
79454;SDS011;68900;52.134;5.420;2023-09-18T02:02:19;16.35;;;9.23;;
79454;SDS011;68900;52.134;5.420;2023-09-18T02:05:05;14.07;;;8.07;;
79454;SDS011;68900;52.134;5.420;2023-09-18T02:07:35;14.30;;;9.18;;
79454;SDS011;68900;52.134;5.420;2023-09-18T02:10:02;18.98;;;10.38;;
79454;SDS011;68900;52.134;5.420;2023-09-18T02:12:29;16.17;;;9.88;;
79454;SDS011;68900;52.134;5.420;2023-09-18T02:14:56;15.80;;;8.82;;
79454;SDS011;68900;52.134;5.420;2023-09-18T02:17:24;16.13;;;10.38;;
79454;SDS011;68900;52.134;5.420;2023-09-18T02:19:51;13.32;;;8.98;;
79454;SDS011;68900;52.134;5.420;2023-09-18T02:22:18;13.75;;;9.57;;
79454;SDS011;68900;52.134;5.420;2023-09-18T02:24:44;13.88;;;8.82;;
79454;SDS011;68900;52.134;5.420;2023-09-18T02:27:11;13.27;;;8.85;;
79454;SDS011;68900;52.134;5.420;2023-09-18T02:29:38;15.23;;;8.85;;
79454;SDS011;68900;52.134;5.420;2023-09-18T02:32:04;13.23;;;9.05;;
79454;SDS011;68900;52.134;5.420;2023-09-18T02:34:31;13.35;;;8.52;;
79454;SDS011;68900;52.134;5.420;2023-09-18T02:36:58;16.15;;;9.55;;
79454;SDS011;68900;52.134;5.420;2023-09-18T02:39:24;14.60;;;8.63;;
79454;SDS011;68900;52.134;5.420;2023-09-18T02:41:51;15.95;;;8.85;;
79454;SDS011;68900;52.134;5.420;2023-09-18T02:44:17;14.52;;;9.13;;
79454;SDS011;68900;52.134;5.420;2023-09-18T02:46:44;12.90;;;8.20;;
79454;SDS011;68900;52.134;5.420;2023-09-18T02:49:10;14.90;;;9.02;;
79454;SDS011;68900;52.134;5.420;2023-09-18T02:51:37;13.50;;;7.65;;
79454;SDS011;68900;52.134;5.420;2023-09-18T02:54:03;12.98;;;8.73;;
79454;SDS011;68900;52.134;5.420;2023-09-18T02:56:30;13.55;;;8.65;;
79454;SDS011;68900;52.134;5.420;2023-09-18T02:58:57;14.10;;;8.88;;
79454;SDS011;68900;52.134;5.420;2023-09-18T03:01:23;16.70;;;8.80;;
79454;SDS011;68900;52.134;5.420;2023-09-18T03:03:50;16.73;;;9.85;;
79454;SDS011;68900;52.134;5.420;2023-09-18T03:06:16;17.40;;;9.13;;
79454;SDS011;68900;52.134;5.420;2023-09-18T03:08:43;16.98;;;10.57;;
79454;SDS011;68900;52.134;5.420;2023-09-18T03:11:13;17.33;;;10.93;;
79454;SDS011;68900;52.134;5.420;2023-09-18T03:13:46;18.00;;;10.52;;
79454;SDS011;68900;52.134;5.420;2023-09-18T03:16:13;15.20;;;9.50;;
79454;SDS011;68900;52.134;5.420;2023-09-18T03:18:40;16.92;;;10.55;;
79454;SDS011;68900;52.134;5.420;2023-09-18T03:21:07;20.33;;;11.65;;
79454;SDS011;68900;52.134;5.420;2023-09-18T03:23:33;15.63;;;10.50;;
79454;SDS011;68900;52.134;5.420;2023-09-18T03:26:00;16.70;;;10.05;;
79454;SDS011;68900;52.134;5.420;2023-09-18T03:28:27;16.73;;;9.70;;
79454;SDS011;68900;52.134;5.420;2023-09-18T03:30:53;16.42;;;10.10;;
79454;SDS011;68900;52.134;5.420;2023-09-18T03:33:20;10.65;;;7.35;;
79454;SDS011;68900;52.134;5.420;2023-09-18T03:35:48;13.73;;;9.20;;
79454;SDS011;68900;52.134;5.420;2023-09-18T03:38:15;16.45;;;10.38;;
79454;SDS011;68900;52.134;5.420;2023-09-18T03:40:42;19.80;;;11.20;;
79454;SDS011;68900;52.134;5.420;2023-09-18T03:43:10;20.13;;;11.35;;
79454;SDS011;68900;52.134;5.420;2023-09-18T03:45:39;18.40;;;11.40;;
79454;SDS011;68900;52.134;5.420;2023-09-18T03:48:09;13.30;;;8.27;;
79454;SDS011;68900;52.134;5.420;2023-09-18T03:50:37;19.58;;;10.32;;
79454;SDS011;68900;52.134;5.420;2023-09-18T03:53:03;15.48;;;9.73;;
79454;SDS011;68900;52.134;5.420;2023-09-18T03:55:30;15.80;;;10.90;;
79454;SDS011;68900;52.134;5.420;2023-09-18T03:57:56;19.17;;;10.73;;
79454;SDS011;68900;52.134;5.420;2023-09-18T04:00:23;13.88;;;8.38;;
79454;SDS011;68900;52.134;5.420;2023-09-18T04:02:50;20.90;;;11.25;;
79454;SDS011;68900;52.134;5.420;2023-09-18T04:05:17;20.25;;;10.35;;
79454;SDS011;68900;52.134;5.420;2023-09-18T04:07:43;15.90;;;10.10;;
79454;SDS011;68900;52.134;5.420;2023-09-18T04:10:13;15.10;;;10.13;;
79454;SDS011;68900;52.134;5.420;2023-09-18T04:12:50;18.80;;;10.77;;
79454;SDS011;68900;52.134;5.420;2023-09-18T04:15:18;21.33;;;11.93;;
79454;SDS011;68900;52.134;5.420;2023-09-18T04:17:45;19.70;;;11.05;;
79454;SDS011;68900;52.134;5.420;2023-09-18T04:20:12;17.42;;;10.13;;
79454;SDS011;68900;52.134;5.420;2023-09-18T04:22:43;17.90;;;10.98;;
79454;SDS011;68900;52.134;5.420;2023-09-18T04:25:15;19.90;;;11.32;;
79454;SDS011;68900;52.134;5.420;2023-09-18T04:27:42;23.73;;;11.70;;
79454;SDS011;68900;52.134;5.420;2023-09-18T04:30:09;17.80;;;11.07;;
79454;SDS011;68900;52.134;5.420;2023-09-18T04:32:36;18.92;;;10.95;;
79454;SDS011;68900;52.134;5.420;2023-09-18T04:35:04;19.92;;;10.98;;
79454;SDS011;68900;52.134;5.420;2023-09-18T04:37:33;18.80;;;10.73;;
79454;SDS011;68900;52.134;5.420;2023-09-18T04:40:04;19.52;;;10.55;;
79454;SDS011;68900;52.134;5.420;2023-09-18T04:42:37;20.50;;;11.85;;
79454;SDS011;68900;52.134;5.420;2023-09-18T04:45:04;18.02;;;10.73;;
79454;SDS011;68900;52.134;5.420;2023-09-18T04:47:32;17.35;;;9.63;;
79454;SDS011;68900;52.134;5.420;2023-09-18T04:49:58;15.45;;;9.15;;
79454;SDS011;68900;52.134;5.420;2023-09-18T04:52:25;14.30;;;8.80;;
79454;SDS011;68900;52.134;5.420;2023-09-18T04:54:51;19.90;;;10.60;;
79454;SDS011;68900;52.134;5.420;2023-09-18T04:57:18;16.15;;;9.88;;
79454;SDS011;68900;52.134;5.420;2023-09-18T04:59:45;16.35;;;9.35;;
79454;SDS011;68900;52.134;5.420;2023-09-18T05:02:11;18.05;;;9.77;;
79454;SDS011;68900;52.134;5.420;2023-09-18T05:04:41;20.13;;;10.10;;
79454;SDS011;68900;52.134;5.420;2023-09-18T05:07:08;20.13;;;10.10;;
79454;SDS011;68900;52.134;5.420;2023-09-18T05:09:34;19.15;;;10.35;;
79454;SDS011;68900;52.134;5.420;2023-09-18T05:12:04;19.10;;;9.80;;
79454;SDS011;68900;52.134;5.420;2023-09-18T05:14:31;17.35;;;8.48;;
79454;SDS011;68900;52.134;5.420;2023-09-18T05:16:57;15.20;;;8.40;;
79454;SDS011;68900;52.134;5.420;2023-09-18T05:19:24;13.18;;;7.32;;
79454;SDS011;68900;52.134;5.420;2023-09-18T05:21:50;16.02;;;6.38;;
79454;SDS011;68900;52.134;5.420;2023-09-18T05:24:17;12.80;;;6.05;;
79454;SDS011;68900;52.134;5.420;2023-09-18T05:26:52;12.45;;;5.40;;
79454;SDS011;68900;52.134;5.420;2023-09-18T05:29:19;10.40;;;5.30;;
79454;SDS011;68900;52.134;5.420;2023-09-18T05:31:46;9.68;;;5.47;;
79454;SDS011;68900;52.134;5.420;2023-09-18T05:34:12;11.10;;;5.10;;
79454;SDS011;68900;52.134;5.420;2023-09-18T05:36:39;9.45;;;4.78;;
79454;SDS011;68900;52.134;5.420;2023-09-18T05:39:06;8.82;;;4.32;;
79454;SDS011;68900;52.134;5.420;2023-09-18T05:41:37;8.38;;;4.80;;
79454;SDS011;68900;52.134;5.420;2023-09-18T05:44:04;9.43;;;4.72;;
79454;SDS011;68900;52.134;5.420;2023-09-18T05:46:36;8.85;;;4.43;;
79454;SDS011;68900;52.134;5.420;2023-09-18T05:49:03;7.97;;;4.13;;
79454;SDS011;68900;52.134;5.420;2023-09-18T05:51:30;9.57;;;3.95;;
79454;SDS011;68900;52.134;5.420;2023-09-18T05:53:57;8.80;;;3.67;;
79454;SDS011;68900;52.134;5.420;2023-09-18T05:56:24;9.00;;;4.43;;
79454;SDS011;68900;52.134;5.420;2023-09-18T05:58:50;7.88;;;4.55;;
79454;SDS011;68900;52.134;5.420;2023-09-18T06:01:18;6.82;;;3.40;;
79454;SDS011;68900;52.134;5.420;2023-09-18T06:03:44;9.95;;;5.10;;
79454;SDS011;68900;52.134;5.420;2023-09-18T06:06:11;8.82;;;4.18;;
79454;SDS011;68900;52.134;5.420;2023-09-18T06:08:38;9.32;;;4.82;;
79454;SDS011;68900;52.134;5.420;2023-09-18T06:11:04;7.63;;;4.43;;
79454;SDS011;68900;52.134;5.420;2023-09-18T06:13:31;8.15;;;4.57;;
79454;SDS011;68900;52.134;5.420;2023-09-18T06:15:57;9.82;;;4.95;;
79454;SDS011;68900;52.134;5.420;2023-09-18T06:18:24;9.60;;;4.97;;
79454;SDS011;68900;52.134;5.420;2023-09-18T06:20:54;8.90;;;4.55;;
79454;SDS011;68900;52.134;5.420;2023-09-18T06:23:20;9.50;;;4.68;;
79454;SDS011;68900;52.134;5.420;2023-09-18T06:25:47;12.13;;;4.80;;
79454;SDS011;68900;52.134;5.420;2023-09-18T06:28:13;12.10;;;5.13;;
79454;SDS011;68900;52.134;5.420;2023-09-18T06:30:40;10.40;;;4.88;;
79454;SDS011;68900;52.134;5.420;2023-09-18T06:33:07;10.38;;;5.53;;
79454;SDS011;68900;52.134;5.420;2023-09-18T06:35:34;8.50;;;5.72;;
79454;SDS011;68900;52.134;5.420;2023-09-18T06:38:00;12.13;;;5.63;;
79454;SDS011;68900;52.134;5.420;2023-09-18T06:40:27;11.35;;;5.55;;
79454;SDS011;68900;52.134;5.420;2023-09-18T06:42:58;11.45;;;6.03;;
79454;SDS011;68900;52.134;5.420;2023-09-18T06:45:26;10.25;;;5.88;;
79454;SDS011;68900;52.134;5.420;2023-09-18T06:47:56;10.70;;;6.05;;
79454;SDS011;68900;52.134;5.420;2023-09-18T06:50:23;11.10;;;5.82;;
79454;SDS011;68900;52.134;5.420;2023-09-18T06:52:50;9.88;;;5.65;;
79454;SDS011;68900;52.134;5.420;2023-09-18T06:55:17;12.20;;;5.93;;
79454;SDS011;68900;52.134;5.420;2023-09-18T06:57:43;11.35;;;5.80;;
79454;SDS011;68900;52.134;5.420;2023-09-18T07:00:10;12.02;;;6.22;;
79454;SDS011;68900;52.134;5.420;2023-09-18T07:02:37;13.70;;;6.47;;
79454;SDS011;68900;52.134;5.420;2023-09-18T07:05:04;10.75;;;5.97;;
79454;SDS011;68900;52.134;5.420;2023-09-18T07:07:31;11.40;;;5.97;;
79454;SDS011;68900;52.134;5.420;2023-09-18T07:09:58;11.60;;;6.55;;
79454;SDS011;68900;52.134;5.420;2023-09-18T07:12:30;16.30;;;6.55;;
79454;SDS011;68900;52.134;5.420;2023-09-18T07:15:01;12.68;;;6.88;;
79454;SDS011;68900;52.134;5.420;2023-09-18T07:17:30;10.70;;;6.47;;
79454;SDS011;68900;52.134;5.420;2023-09-18T07:19:57;12.18;;;6.80;;
79454;SDS011;68900;52.134;5.420;2023-09-18T07:22:23;12.13;;;6.20;;
79454;SDS011;68900;52.134;5.420;2023-09-18T07:24:50;10.88;;;6.80;;
79454;SDS011;68900;52.134;5.420;2023-09-18T07:27:16;12.45;;;7.43;;
79454;SDS011;68900;52.134;5.420;2023-09-18T07:29:43;13.02;;;6.95;;
79454;SDS011;68900;52.134;5.420;2023-09-18T07:32:10;11.35;;;6.68;;
79454;SDS011;68900;52.134;5.420;2023-09-18T07:34:37;13.75;;;7.35;;
79454;SDS011;68900;52.134;5.420;2023-09-18T07:37:03;11.00;;;6.93;;
79454;SDS011;68900;52.134;5.420;2023-09-18T07:39:30;12.77;;;7.10;;
79454;SDS011;68900;52.134;5.420;2023-09-18T07:41:56;10.68;;;6.60;;
79454;SDS011;68900;52.134;5.420;2023-09-18T07:44:23;10.88;;;6.40;;
79454;SDS011;68900;52.134;5.420;2023-09-18T07:46:50;12.70;;;6.55;;
79454;SDS011;68900;52.134;5.420;2023-09-18T07:49:16;11.98;;;6.32;;
79454;SDS011;68900;52.134;5.420;2023-09-18T07:51:43;10.95;;;6.40;;
79454;SDS011;68900;52.134;5.420;2023-09-18T07:54:13;11.55;;;6.03;;
79454;SDS011;68900;52.134;5.420;2023-09-18T07:56:41;11.55;;;6.82;;
79454;SDS011;68900;52.134;5.420;2023-09-18T07:59:09;13.07;;;6.25;;
79454;SDS011;68900;52.134;5.420;2023-09-18T08:01:37;11.50;;;5.78;;
79454;SDS011;68900;52.134;5.420;2023-09-18T08:04:03;11.38;;;5.95;;
79454;SDS011;68900;52.134;5.420;2023-09-18T08:06:31;10.15;;;5.47;;
79454;SDS011;68900;52.134;5.420;2023-09-18T08:09:00;13.63;;;5.93;;
79454;SDS011;68900;52.134;5.420;2023-09-18T08:11:27;8.93;;;4.70;;
79454;SDS011;68900;52.134;5.420;2023-09-18T08:13:53;10.55;;;4.82;;
79454;SDS011;68900;52.134;5.420;2023-09-18T08:16:20;8.57;;;4.22;;
79454;SDS011;68900;52.134;5.420;2023-09-18T08:18:46;9.20;;;4.18;;
79454;SDS011;68900;52.134;5.420;2023-09-18T08:21:14;8.02;;;3.83;;
79454;SDS011;68900;52.134;5.420;2023-09-18T08:23:41;7.38;;;4.07;;
79454;SDS011;68900;52.134;5.420;2023-09-18T08:26:08;8.05;;;4.57;;
79454;SDS011;68900;52.134;5.420;2023-09-18T08:28:35;8.32;;;4.30;;
79454;SDS011;68900;52.134;5.420;2023-09-18T08:31:04;10.48;;;4.60;;
79454;SDS011;68900;52.134;5.420;2023-09-18T08:33:30;9.38;;;4.40;;
79454;SDS011;68900;52.134;5.420;2023-09-18T08:35:57;8.90;;;4.10;;
79454;SDS011;68900;52.134;5.420;2023-09-18T08:38:24;7.60;;;3.75;;
79454;SDS011;68900;52.134;5.420;2023-09-18T08:40:53;7.00;;;3.38;;
79454;SDS011;68900;52.134;5.420;2023-09-18T08:43:20;9.80;;;3.75;;
79454;SDS011;68900;52.134;5.420;2023-09-18T08:45:51;6.97;;;3.45;;
79454;SDS011;68900;52.134;5.420;2023-09-18T08:48:20;6.78;;;3.20;;
79454;SDS011;68900;52.134;5.420;2023-09-18T08:50:47;6.78;;;3.38;;
79454;SDS011;68900;52.134;5.420;2023-09-18T08:53:14;7.20;;;3.53;;
79454;SDS011;68900;52.134;5.420;2023-09-18T08:55:41;8.05;;;3.20;;
79454;SDS011;68900;52.134;5.420;2023-09-18T08:58:08;7.45;;;3.65;;
79454;SDS011;68900;52.134;5.420;2023-09-18T09:00:38;8.35;;;3.63;;
79454;SDS011;68900;52.134;5.420;2023-09-18T09:03:04;6.68;;;3.30;;
79454;SDS011;68900;52.134;5.420;2023-09-18T09:05:32;9.05;;;3.10;;
79454;SDS011;68900;52.134;5.420;2023-09-18T09:07:59;6.97;;;3.70;;
79454;SDS011;68900;52.134;5.420;2023-09-18T09:10:26;8.80;;;3.33;;
79454;SDS011;68900;52.134;5.420;2023-09-18T09:15:21;8.30;;;3.42;;
79454;SDS011;68900;52.134;5.420;2023-09-18T09:17:49;6.70;;;3.47;;
79454;SDS011;68900;52.134;5.420;2023-09-18T09:20:17;8.55;;;3.22;;
79454;SDS011;68900;52.134;5.420;2023-09-18T09:22:45;6.50;;;3.50;;
79454;SDS011;68900;52.134;5.420;2023-09-18T09:25:21;6.75;;;3.10;;
79454;SDS011;68900;52.134;5.420;2023-09-18T09:27:48;5.32;;;2.90;;
79454;SDS011;68900;52.134;5.420;2023-09-18T09:30:21;8.70;;;3.72;;
79454;SDS011;68900;52.134;5.420;2023-09-18T09:32:52;7.07;;;2.90;;
79454;SDS011;68900;52.134;5.420;2023-09-18T09:35:27;8.05;;;3.15;;
79454;SDS011;68900;52.134;5.420;2023-09-18T09:38:01;8.50;;;3.22;;
79454;SDS011;68900;52.134;5.420;2023-09-18T09:40:38;4.97;;;2.65;;
79454;SDS011;68900;52.134;5.420;2023-09-18T09:43:08;6.20;;;3.00;;
79454;SDS011;68900;52.134;5.420;2023-09-18T09:45:36;7.18;;;2.90;;
79454;SDS011;68900;52.134;5.420;2023-09-18T09:48:03;5.30;;;2.58;;
79454;SDS011;68900;52.134;5.420;2023-09-18T09:50:43;6.28;;;3.20;;
79454;SDS011;68900;52.134;5.420;2023-09-18T09:53:15;6.68;;;2.95;;
79454;SDS011;68900;52.134;5.420;2023-09-18T09:55:42;5.43;;;3.10;;
79454;SDS011;68900;52.134;5.420;2023-09-18T09:58:09;7.28;;;3.30;;
79454;SDS011;68900;52.134;5.420;2023-09-18T10:00:45;5.68;;;3.28;;
79454;SDS011;68900;52.134;5.420;2023-09-18T10:03:17;7.50;;;3.72;;
79454;SDS011;68900;52.134;5.420;2023-09-18T10:05:45;8.10;;;3.70;;
79454;SDS011;68900;52.134;5.420;2023-09-18T10:08:21;6.13;;;4.15;;
79454;SDS011;68900;52.134;5.420;2023-09-18T10:10:50;8.55;;;4.85;;
79454;SDS011;68900;52.134;5.420;2023-09-18T10:13:20;6.22;;;4.47;;
79454;SDS011;68900;52.134;5.420;2023-09-18T10:15:58;7.13;;;4.20;;
79454;SDS011;68900;52.134;5.420;2023-09-18T10:18:34;9.68;;;4.45;;
79454;SDS011;68900;52.134;5.420;2023-09-18T10:21:25;7.05;;;4.38;;
79454;SDS011;68900;52.134;5.420;2023-09-18T10:26:55;8.18;;;3.75;;
79454;SDS011;68900;52.134;5.420;2023-09-18T10:29:22;9.10;;;4.07;;
79454;SDS011;68900;52.134;5.420;2023-09-18T10:31:53;8.45;;;4.15;;
79454;SDS011;68900;52.134;5.420;2023-09-18T10:34:20;6.40;;;4.18;;
79454;SDS011;68900;52.134;5.420;2023-09-18T10:39:15;8.05;;;4.43;;
79454;SDS011;68900;52.134;5.420;2023-09-18T10:41:47;6.60;;;4.40;;
79454;SDS011;68900;52.134;5.420;2023-09-18T10:44:14;8.02;;;4.85;;
79454;SDS011;68900;52.134;5.420;2023-09-18T10:46:44;9.00;;;5.30;;
79454;SDS011;68900;52.134;5.420;2023-09-18T10:49:12;7.18;;;5.13;;
79454;SDS011;68900;52.134;5.420;2023-09-18T10:51:38;8.27;;;5.30;;
79454;SDS011;68900;52.134;5.420;2023-09-18T10:54:09;7.60;;;5.10;;
79454;SDS011;68900;52.134;5.420;2023-09-18T10:56:42;8.13;;;5.40;;
79454;SDS011;68900;52.134;5.420;2023-09-18T10:59:09;8.73;;;5.35;;
79454;SDS011;68900;52.134;5.420;2023-09-18T11:01:36;8.30;;;5.15;;
79454;SDS011;68900;52.134;5.420;2023-09-18T11:04:03;11.82;;;5.15;;
79454;SDS011;68900;52.134;5.420;2023-09-18T11:09:20;8.02;;;4.97;;
79454;SDS011;68900;52.134;5.420;2023-09-18T11:11:54;7.35;;;4.93;;
79454;SDS011;68900;52.134;5.420;2023-09-18T11:17:35;11.50;;;4.50;;
79454;SDS011;68900;52.134;5.420;2023-09-18T11:22:36;9.98;;;4.72;;
79454;SDS011;68900;52.134;5.420;2023-09-18T11:28:01;9.00;;;4.03;;
79454;SDS011;68900;52.134;5.420;2023-09-18T11:30:33;7.28;;;3.70;;
79454;SDS011;68900;52.134;5.420;2023-09-18T11:33:06;8.10;;;3.25;;
79454;SDS011;68900;52.134;5.420;2023-09-18T11:35:50;6.68;;;3.40;;
79454;SDS011;68900;52.134;5.420;2023-09-18T11:38:19;8.95;;;3.80;;
79454;SDS011;68900;52.134;5.420;2023-09-18T11:40:50;6.25;;;3.55;;
79454;SDS011;68900;52.134;5.420;2023-09-18T11:45:57;5.70;;;2.95;;
79454;SDS011;68900;52.134;5.420;2023-09-18T11:48:26;6.13;;;3.25;;
79454;SDS011;68900;52.134;5.420;2023-09-18T11:50:57;7.78;;;3.65;;
79454;SDS011;68900;52.134;5.420;2023-09-18T11:53:26;7.00;;;4.53;;
79454;SDS011;68900;52.134;5.420;2023-09-18T11:55:54;8.75;;;4.80;;
79454;SDS011;68900;52.134;5.420;2023-09-18T11:58:21;7.85;;;4.70;;
79454;SDS011;68900;52.134;5.420;2023-09-18T12:00:52;9.13;;;5.00;;
79454;SDS011;68900;52.134;5.420;2023-09-18T12:03:21;8.05;;;4.93;;
79454;SDS011;68900;52.134;5.420;2023-09-18T12:05:56;6.75;;;4.22;;
79454;SDS011;68900;52.134;5.420;2023-09-18T12:08:24;7.57;;;4.18;;
79454;SDS011;68900;52.134;5.420;2023-09-18T12:10:53;11.60;;;4.15;;
79454;SDS011;68900;52.134;5.420;2023-09-18T12:13:20;7.40;;;3.67;;
79454;SDS011;68900;52.134;5.420;2023-09-18T12:15:49;9.30;;;3.92;;
79454;SDS011;68900;52.134;5.420;2023-09-18T12:18:15;8.18;;;3.58;;
79454;SDS011;68900;52.134;5.420;2023-09-18T12:20:47;7.90;;;3.75;;
79454;SDS011;68900;52.134;5.420;2023-09-18T12:23:15;11.90;;;3.70;;
79454;SDS011;68900;52.134;5.420;2023-09-18T12:25:44;7.57;;;3.63;;
79454;SDS011;68900;52.134;5.420;2023-09-18T12:28:13;6.72;;;3.30;;
79454;SDS011;68900;52.134;5.420;2023-09-18T12:30:42;8.38;;;3.60;;
79454;SDS011;68900;52.134;5.420;2023-09-18T12:33:09;7.65;;;3.35;;
79454;SDS011;68900;52.134;5.420;2023-09-18T12:35:37;7.13;;;3.38;;
79454;SDS011;68900;52.134;5.420;2023-09-18T12:38:15;8.23;;;3.30;;
79454;SDS011;68900;52.134;5.420;2023-09-18T12:40:45;8.38;;;3.05;;
79454;SDS011;68900;52.134;5.420;2023-09-18T12:43:12;6.40;;;3.03;;
79454;SDS011;68900;52.134;5.420;2023-09-18T12:45:43;7.80;;;3.17;;
79454;SDS011;68900;52.134;5.420;2023-09-18T12:48:13;7.00;;;3.15;;
79454;SDS011;68900;52.134;5.420;2023-09-18T12:50:40;6.47;;;2.72;;
79454;SDS011;68900;52.134;5.420;2023-09-18T12:53:08;7.75;;;3.17;;
79454;SDS011;68900;52.134;5.420;2023-09-18T12:55:39;7.85;;;2.83;;
79454;SDS011;68900;52.134;5.420;2023-09-18T12:58:10;8.57;;;2.97;;
79454;SDS011;68900;52.134;5.420;2023-09-18T13:00:40;6.65;;;3.28;;
79454;SDS011;68900;52.134;5.420;2023-09-18T13:03:17;6.63;;;3.30;;
79454;SDS011;68900;52.134;5.420;2023-09-18T13:05:45;8.10;;;3.55;;
79454;SDS011;68900;52.134;5.420;2023-09-18T13:10:44;8.45;;;3.17;;
79454;SDS011;68900;52.134;5.420;2023-09-18T13:13:18;6.15;;;2.85;;
79454;SDS011;68900;52.134;5.420;2023-09-18T13:15:46;6.18;;;2.95;;
79454;SDS011;68900;52.134;5.420;2023-09-18T13:18:14;6.18;;;2.90;;
79454;SDS011;68900;52.134;5.420;2023-09-18T13:20:44;6.72;;;2.97;;
79454;SDS011;68900;52.134;5.420;2023-09-18T13:23:11;7.82;;;3.42;;
79454;SDS011;68900;52.134;5.420;2023-09-18T13:25:38;6.50;;;2.58;;
79454;SDS011;68900;52.134;5.420;2023-09-18T13:28:08;9.30;;;3.10;;
79454;SDS011;68900;52.134;5.420;2023-09-18T13:30:36;4.78;;;2.63;;
79454;SDS011;68900;52.134;5.420;2023-09-18T13:33:10;6.68;;;2.50;;
79454;SDS011;68900;52.134;5.420;2023-09-18T13:35:42;6.13;;;2.30;;
79454;SDS011;68900;52.134;5.420;2023-09-18T13:38:11;11.73;;;3.08;;
79454;SDS011;68900;52.134;5.420;2023-09-18T13:40:41;8.30;;;2.67;;
79454;SDS011;68900;52.134;5.420;2023-09-18T13:43:08;7.93;;;2.60;;
79454;SDS011;68900;52.134;5.420;2023-09-18T13:45:36;4.75;;;2.30;;
79454;SDS011;68900;52.134;5.420;2023-09-18T13:48:05;6.93;;;2.17;;
79454;SDS011;68900;52.134;5.420;2023-09-18T13:50:33;7.72;;;2.33;;
79454;SDS011;68900;52.134;5.420;2023-09-18T13:53:01;6.30;;;2.20;;
79454;SDS011;68900;52.134;5.420;2023-09-18T13:55:30;4.97;;;1.90;;
79454;SDS011;68900;52.134;5.420;2023-09-18T13:57:57;4.70;;;2.10;;
79454;SDS011;68900;52.134;5.420;2023-09-18T14:00:24;4.78;;;2.00;;
79454;SDS011;68900;52.134;5.420;2023-09-18T14:02:52;6.68;;;1.90;;
79454;SDS011;68900;52.134;5.420;2023-09-18T14:05:19;4.13;;;1.75;;
79454;SDS011;68900;52.134;5.420;2023-09-18T14:07:46;4.32;;;1.90;;
79454;SDS011;68900;52.134;5.420;2023-09-18T14:10:21;5.53;;;1.70;;
79454;SDS011;68900;52.134;5.420;2023-09-18T14:12:48;5.90;;;1.60;;
79454;SDS011;68900;52.134;5.420;2023-09-18T14:15:17;6.82;;;1.92;;
79454;SDS011;68900;52.134;5.420;2023-09-18T14:17:44;6.22;;;1.65;;
79454;SDS011;68900;52.134;5.420;2023-09-18T14:20:11;5.32;;;1.70;;
79454;SDS011;68900;52.134;5.420;2023-09-18T14:22:38;5.55;;;1.70;;
79454;SDS011;68900;52.134;5.420;2023-09-18T14:25:04;3.78;;;1.40;;
79454;SDS011;68900;52.134;5.420;2023-09-18T14:27:33;3.60;;;1.40;;
79454;SDS011;68900;52.134;5.420;2023-09-18T14:30:01;3.60;;;1.30;;
79454;SDS011;68900;52.134;5.420;2023-09-18T14:32:33;7.90;;;1.90;;
79454;SDS011;68900;52.134;5.420;2023-09-18T14:35:06;4.40;;;1.80;;
79454;SDS011;68900;52.134;5.420;2023-09-18T14:37:35;4.20;;;1.65;;
79454;SDS011;68900;52.134;5.420;2023-09-18T14:40:02;4.00;;;1.50;;
79454;SDS011;68900;52.134;5.420;2023-09-18T14:42:29;6.25;;;1.90;;
79454;SDS011;68900;52.134;5.420;2023-09-18T14:44:56;4.75;;;1.60;;
79454;SDS011;68900;52.134;5.420;2023-09-18T14:47:23;3.00;;;1.40;;
79454;SDS011;68900;52.134;5.420;2023-09-18T14:49:50;5.28;;;1.90;;
79454;SDS011;68900;52.134;5.420;2023-09-18T14:52:16;6.13;;;1.80;;
79454;SDS011;68900;52.134;5.420;2023-09-18T14:54:45;4.32;;;1.63;;
79454;SDS011;68900;52.134;5.420;2023-09-18T14:57:12;4.82;;;1.55;;
79454;SDS011;68900;52.134;5.420;2023-09-18T14:59:38;7.25;;;1.73;;
79454;SDS011;68900;52.134;5.420;2023-09-18T15:02:08;8.18;;;1.63;;
79454;SDS011;68900;52.134;5.420;2023-09-18T15:04:34;3.83;;;1.50;;
79454;SDS011;68900;52.134;5.420;2023-09-18T15:07:01;5.15;;;1.67;;
79454;SDS011;68900;52.134;5.420;2023-09-18T15:09:28;6.32;;;1.63;;
79454;SDS011;68900;52.134;5.420;2023-09-18T15:11:55;7.45;;;1.58;;
79454;SDS011;68900;52.134;5.420;2023-09-18T15:14:21;7.72;;;1.88;;